sensor_id;sensor_type;location;lat;lon;timestamp;P1;durP1;ratioP1;P2;durP2;ratioP2
23608;SDS011;11982;50.810;4.442;2022-11-14T00:02:10;80.80;;;43.80;;
23608;SDS011;11982;50.810;4.442;2022-11-14T00:04:35;74.88;;;41.92;;
23608;SDS011;11982;50.810;4.442;2022-11-14T00:07:01;79.35;;;44.65;;
23608;SDS011;11982;50.810;4.442;2022-11-14T00:09:27;86.88;;;47.28;;
23608;SDS011;11982;50.810;4.442;2022-11-14T00:11:53;85.57;;;45.70;;
23608;SDS011;11982;50.810;4.442;2022-11-14T00:14:19;81.35;;;44.92;;
23608;SDS011;11982;50.810;4.442;2022-11-14T00:16:45;90.95;;;47.20;;
23608;SDS011;11982;50.810;4.442;2022-11-14T00:19:11;80.78;;;44.88;;
23608;SDS011;11982;50.810;4.442;2022-11-14T00:21:37;92.10;;;48.20;;
23608;SDS011;11982;50.810;4.442;2022-11-14T00:24:02;84.32;;;46.95;;
23608;SDS011;11982;50.810;4.442;2022-11-14T00:26:28;83.32;;;45.30;;
23608;SDS011;11982;50.810;4.442;2022-11-14T00:28:54;82.97;;;44.25;;
23608;SDS011;11982;50.810;4.442;2022-11-14T00:31:19;82.38;;;44.10;;
23608;SDS011;11982;50.810;4.442;2022-11-14T00:33:45;91.22;;;47.20;;
23608;SDS011;11982;50.810;4.442;2022-11-14T00:36:11;86.95;;;46.28;;
23608;SDS011;11982;50.810;4.442;2022-11-14T00:38:36;86.90;;;46.40;;
23608;SDS011;11982;50.810;4.442;2022-11-14T00:41:02;86.30;;;47.20;;
23608;SDS011;11982;50.810;4.442;2022-11-14T00:43:27;92.13;;;47.22;;
23608;SDS011;11982;50.810;4.442;2022-11-14T00:45:53;86.93;;;46.53;;
23608;SDS011;11982;50.810;4.442;2022-11-14T00:48:19;80.70;;;45.78;;
23608;SDS011;11982;50.810;4.442;2022-11-14T00:50:44;73.40;;;42.42;;
23608;SDS011;11982;50.810;4.442;2022-11-14T00:53:10;74.60;;;41.33;;
23608;SDS011;11982;50.810;4.442;2022-11-14T00:55:37;80.15;;;43.08;;
23608;SDS011;11982;50.810;4.442;2022-11-14T00:58:02;76.97;;;41.97;;
23608;SDS011;11982;50.810;4.442;2022-11-14T01:00:28;82.03;;;44.70;;
23608;SDS011;11982;50.810;4.442;2022-11-14T01:02:54;88.03;;;45.20;;
23608;SDS011;11982;50.810;4.442;2022-11-14T01:05:21;83.20;;;44.70;;
23608;SDS011;11982;50.810;4.442;2022-11-14T01:07:48;89.85;;;45.17;;
23608;SDS011;11982;50.810;4.442;2022-11-14T01:10:14;82.57;;;44.78;;
23608;SDS011;11982;50.810;4.442;2022-11-14T01:12:40;85.18;;;45.85;;
23608;SDS011;11982;50.810;4.442;2022-11-14T01:15:06;81.35;;;44.03;;
23608;SDS011;11982;50.810;4.442;2022-11-14T01:17:32;81.30;;;44.20;;
23608;SDS011;11982;50.810;4.442;2022-11-14T01:19:57;93.28;;;47.28;;
23608;SDS011;11982;50.810;4.442;2022-11-14T01:22:23;78.07;;;44.17;;
23608;SDS011;11982;50.810;4.442;2022-11-14T01:24:49;82.80;;;44.88;;
23608;SDS011;11982;50.810;4.442;2022-11-14T01:27:14;80.72;;;44.40;;
23608;SDS011;11982;50.810;4.442;2022-11-14T01:29:40;83.43;;;45.83;;
23608;SDS011;11982;50.810;4.442;2022-11-14T01:32:06;89.40;;;45.90;;
23608;SDS011;11982;50.810;4.442;2022-11-14T01:34:32;91.30;;;46.83;;
23608;SDS011;11982;50.810;4.442;2022-11-14T01:36:57;93.45;;;46.85;;
23608;SDS011;11982;50.810;4.442;2022-11-14T01:39:24;82.72;;;43.58;;
23608;SDS011;11982;50.810;4.442;2022-11-14T01:41:50;79.63;;;42.65;;
23608;SDS011;11982;50.810;4.442;2022-11-14T01:44:36;87.40;;;46.35;;
23608;SDS011;11982;50.810;4.442;2022-11-14T01:47:11;87.65;;;44.10;;
23608;SDS011;11982;50.810;4.442;2022-11-14T01:49:41;81.78;;;43.10;;
23608;SDS011;11982;50.810;4.442;2022-11-14T01:52:11;79.03;;;44.72;;
23608;SDS011;11982;50.810;4.442;2022-11-14T01:54:59;81.38;;;42.60;;
23608;SDS011;11982;50.810;4.442;2022-11-14T01:57:34;86.78;;;42.83;;
23608;SDS011;11982;50.810;4.442;2022-11-14T02:00:05;89.95;;;43.75;;
23608;SDS011;11982;50.810;4.442;2022-11-14T02:02:33;76.97;;;43.25;;
23608;SDS011;11982;50.810;4.442;2022-11-14T02:05:02;87.43;;;44.47;;
23608;SDS011;11982;50.810;4.442;2022-11-14T02:07:31;84.45;;;43.85;;
23608;SDS011;11982;50.810;4.442;2022-11-14T02:10:00;80.07;;;45.83;;
23608;SDS011;11982;50.810;4.442;2022-11-14T02:12:29;77.70;;;43.88;;
23608;SDS011;11982;50.810;4.442;2022-11-14T02:14:54;84.25;;;43.90;;
23608;SDS011;11982;50.810;4.442;2022-11-14T02:17:22;89.93;;;44.72;;
23608;SDS011;11982;50.810;4.442;2022-11-14T02:19:53;89.07;;;44.13;;
23608;SDS011;11982;50.810;4.442;2022-11-14T02:22:40;87.70;;;46.05;;
23608;SDS011;11982;50.810;4.442;2022-11-14T02:25:07;92.20;;;45.42;;
23608;SDS011;11982;50.810;4.442;2022-11-14T02:27:34;91.25;;;47.08;;
23608;SDS011;11982;50.810;4.442;2022-11-14T02:30:05;86.90;;;44.97;;
23608;SDS011;11982;50.810;4.442;2022-11-14T02:32:32;88.88;;;44.72;;
23608;SDS011;11982;50.810;4.442;2022-11-14T02:34:58;87.10;;;44.42;;
23608;SDS011;11982;50.810;4.442;2022-11-14T02:37:23;85.38;;;44.75;;
23608;SDS011;11982;50.810;4.442;2022-11-14T02:39:49;87.00;;;44.80;;
23608;SDS011;11982;50.810;4.442;2022-11-14T02:42:14;80.32;;;41.95;;
23608;SDS011;11982;50.810;4.442;2022-11-14T02:44:40;78.50;;;41.67;;
23608;SDS011;11982;50.810;4.442;2022-11-14T02:47:06;78.75;;;40.03;;
23608;SDS011;11982;50.810;4.442;2022-11-14T02:49:31;74.15;;;39.63;;
23608;SDS011;11982;50.810;4.442;2022-11-14T02:51:57;70.30;;;39.88;;
23608;SDS011;11982;50.810;4.442;2022-11-14T02:54:22;77.57;;;40.65;;
23608;SDS011;11982;50.810;4.442;2022-11-14T02:56:48;77.75;;;41.38;;
23608;SDS011;11982;50.810;4.442;2022-11-14T02:59:13;75.40;;;40.67;;
23608;SDS011;11982;50.810;4.442;2022-11-14T03:01:39;79.20;;;39.95;;
23608;SDS011;11982;50.810;4.442;2022-11-14T03:04:04;72.72;;;39.53;;
23608;SDS011;11982;50.810;4.442;2022-11-14T03:06:30;66.68;;;37.58;;
23608;SDS011;11982;50.810;4.442;2022-11-14T03:08:56;68.70;;;37.03;;
23608;SDS011;11982;50.810;4.442;2022-11-14T03:11:21;75.07;;;35.47;;
23608;SDS011;11982;50.810;4.442;2022-11-14T03:13:47;69.70;;;35.47;;
23608;SDS011;11982;50.810;4.442;2022-11-14T03:16:12;73.05;;;36.80;;
23608;SDS011;11982;50.810;4.442;2022-11-14T03:18:39;70.20;;;35.90;;
23608;SDS011;11982;50.810;4.442;2022-11-14T03:21:09;70.00;;;36.58;;
23608;SDS011;11982;50.810;4.442;2022-11-14T03:23:37;62.70;;;34.00;;
23608;SDS011;11982;50.810;4.442;2022-11-14T03:26:04;64.80;;;35.25;;
23608;SDS011;11982;50.810;4.442;2022-11-14T03:28:31;63.40;;;35.00;;
23608;SDS011;11982;50.810;4.442;2022-11-14T03:30:57;66.55;;;33.90;;
23608;SDS011;11982;50.810;4.442;2022-11-14T03:33:22;69.15;;;34.58;;
23608;SDS011;11982;50.810;4.442;2022-11-14T03:35:49;66.20;;;33.90;;
23608;SDS011;11982;50.810;4.442;2022-11-14T03:38:15;61.25;;;34.45;;
23608;SDS011;11982;50.810;4.442;2022-11-14T03:40:41;61.53;;;34.35;;
23608;SDS011;11982;50.810;4.442;2022-11-14T03:43:07;64.38;;;33.20;;
23608;SDS011;11982;50.810;4.442;2022-11-14T03:45:35;68.07;;;34.40;;
23608;SDS011;11982;50.810;4.442;2022-11-14T03:48:01;73.07;;;36.13;;
23608;SDS011;11982;50.810;4.442;2022-11-14T03:50:27;66.43;;;35.53;;
23608;SDS011;11982;50.810;4.442;2022-11-14T03:52:53;67.03;;;33.40;;
23608;SDS011;11982;50.810;4.442;2022-11-14T03:55:18;68.57;;;34.70;;
23608;SDS011;11982;50.810;4.442;2022-11-14T03:57:44;63.60;;;33.10;;
23608;SDS011;11982;50.810;4.442;2022-11-14T04:00:09;61.63;;;32.55;;
23608;SDS011;11982;50.810;4.442;2022-11-14T04:02:35;56.33;;;30.50;;
23608;SDS011;11982;50.810;4.442;2022-11-14T04:05:01;59.78;;;31.70;;
23608;SDS011;11982;50.810;4.442;2022-11-14T04:07:27;59.50;;;31.23;;
23608;SDS011;11982;50.810;4.442;2022-11-14T04:09:53;64.10;;;31.40;;
23608;SDS011;11982;50.810;4.442;2022-11-14T04:12:19;55.47;;;32.25;;
23608;SDS011;11982;50.810;4.442;2022-11-14T04:14:44;61.67;;;32.60;;
23608;SDS011;11982;50.810;4.442;2022-11-14T04:17:10;64.90;;;32.38;;
23608;SDS011;11982;50.810;4.442;2022-11-14T04:19:35;62.13;;;32.83;;
23608;SDS011;11982;50.810;4.442;2022-11-14T04:22:01;63.08;;;32.90;;
23608;SDS011;11982;50.810;4.442;2022-11-14T04:24:27;58.22;;;31.90;;
23608;SDS011;11982;50.810;4.442;2022-11-14T04:26:53;61.95;;;33.45;;
23608;SDS011;11982;50.810;4.442;2022-11-14T04:29:18;70.65;;;36.47;;
23608;SDS011;11982;50.810;4.442;2022-11-14T04:31:44;69.63;;;34.85;;
23608;SDS011;11982;50.810;4.442;2022-11-14T04:34:09;70.00;;;34.45;;
23608;SDS011;11982;50.810;4.442;2022-11-14T04:36:35;72.30;;;33.78;;
23608;SDS011;11982;50.810;4.442;2022-11-14T04:39:01;67.95;;;33.72;;
23608;SDS011;11982;50.810;4.442;2022-11-14T04:41:26;63.25;;;31.60;;
23608;SDS011;11982;50.810;4.442;2022-11-14T04:43:52;68.00;;;34.08;;
23608;SDS011;11982;50.810;4.442;2022-11-14T04:46:17;67.13;;;32.60;;
23608;SDS011;11982;50.810;4.442;2022-11-14T04:48:43;59.95;;;30.95;;
23608;SDS011;11982;50.810;4.442;2022-11-14T04:51:09;60.67;;;30.05;;
23608;SDS011;11982;50.810;4.442;2022-11-14T04:53:34;59.90;;;29.48;;
23608;SDS011;11982;50.810;4.442;2022-11-14T04:56:00;52.42;;;27.27;;
23608;SDS011;11982;50.810;4.442;2022-11-14T04:58:26;56.15;;;26.95;;
23608;SDS011;11982;50.810;4.442;2022-11-14T05:00:51;59.70;;;27.48;;
23608;SDS011;11982;50.810;4.442;2022-11-14T05:03:17;56.83;;;28.60;;
23608;SDS011;11982;50.810;4.442;2022-11-14T05:05:43;50.42;;;26.33;;
23608;SDS011;11982;50.810;4.442;2022-11-14T05:08:08;48.13;;;24.80;;
23608;SDS011;11982;50.810;4.442;2022-11-14T05:10:34;52.80;;;23.98;;
23608;SDS011;11982;50.810;4.442;2022-11-14T05:12:59;50.47;;;25.35;;
23608;SDS011;11982;50.810;4.442;2022-11-14T05:15:25;50.30;;;24.25;;
23608;SDS011;11982;50.810;4.442;2022-11-14T05:17:51;55.42;;;26.30;;
23608;SDS011;11982;50.810;4.442;2022-11-14T05:20:17;54.63;;;25.45;;
23608;SDS011;11982;50.810;4.442;2022-11-14T05:22:42;56.40;;;26.63;;
23608;SDS011;11982;50.810;4.442;2022-11-14T05:25:08;52.78;;;27.15;;
23608;SDS011;11982;50.810;4.442;2022-11-14T05:27:34;53.78;;;25.33;;
23608;SDS011;11982;50.810;4.442;2022-11-14T05:29:59;60.78;;;26.45;;
23608;SDS011;11982;50.810;4.442;2022-11-14T05:32:25;50.13;;;25.70;;
23608;SDS011;11982;50.810;4.442;2022-11-14T05:34:50;59.30;;;25.73;;
23608;SDS011;11982;50.810;4.442;2022-11-14T05:37:16;56.75;;;26.67;;
23608;SDS011;11982;50.810;4.442;2022-11-14T05:39:41;55.20;;;27.85;;
23608;SDS011;11982;50.810;4.442;2022-11-14T05:42:07;56.50;;;27.23;;
23608;SDS011;11982;50.810;4.442;2022-11-14T05:44:33;56.97;;;26.90;;
23608;SDS011;11982;50.810;4.442;2022-11-14T05:46:58;60.70;;;27.52;;
23608;SDS011;11982;50.810;4.442;2022-11-14T05:49:24;50.20;;;26.70;;
23608;SDS011;11982;50.810;4.442;2022-11-14T05:51:49;49.90;;;26.15;;
23608;SDS011;11982;50.810;4.442;2022-11-14T05:54:15;49.67;;;26.13;;
23608;SDS011;11982;50.810;4.442;2022-11-14T05:56:40;57.58;;;28.23;;
23608;SDS011;11982;50.810;4.442;2022-11-14T05:59:06;50.00;;;27.92;;
23608;SDS011;11982;50.810;4.442;2022-11-14T06:01:31;58.20;;;28.92;;
23608;SDS011;11982;50.810;4.442;2022-11-14T06:03:57;60.05;;;29.73;;
23608;SDS011;11982;50.810;4.442;2022-11-14T06:06:23;63.10;;;30.60;;
23608;SDS011;11982;50.810;4.442;2022-11-14T06:08:48;63.92;;;28.75;;
23608;SDS011;11982;50.810;4.442;2022-11-14T06:11:15;61.58;;;29.98;;
23608;SDS011;11982;50.810;4.442;2022-11-14T06:13:45;63.42;;;29.08;;
23608;SDS011;11982;50.810;4.442;2022-11-14T06:16:17;57.88;;;28.42;;
23608;SDS011;11982;50.810;4.442;2022-11-14T06:18:44;52.88;;;27.02;;
23608;SDS011;11982;50.810;4.442;2022-11-14T06:21:14;56.08;;;26.83;;
23608;SDS011;11982;50.810;4.442;2022-11-14T06:23:41;52.47;;;25.75;;
23608;SDS011;11982;50.810;4.442;2022-11-14T06:26:24;52.03;;;27.05;;
23608;SDS011;11982;50.810;4.442;2022-11-14T06:28:51;51.40;;;25.10;;
23608;SDS011;11982;50.810;4.442;2022-11-14T06:31:18;57.60;;;24.02;;
23608;SDS011;11982;50.810;4.442;2022-11-14T06:33:44;47.78;;;24.63;;
23608;SDS011;11982;50.810;4.442;2022-11-14T06:36:10;60.13;;;26.35;;
23608;SDS011;11982;50.810;4.442;2022-11-14T06:38:37;53.67;;;25.10;;
23608;SDS011;11982;50.810;4.442;2022-11-14T06:43:37;46.60;;;24.55;;
23608;SDS011;11982;50.810;4.442;2022-11-14T06:46:04;52.78;;;25.30;;
23608;SDS011;11982;50.810;4.442;2022-11-14T06:48:31;48.70;;;23.17;;
23608;SDS011;11982;50.810;4.442;2022-11-14T06:50:58;45.55;;;23.17;;
23608;SDS011;11982;50.810;4.442;2022-11-14T06:53:24;48.58;;;23.48;;
23608;SDS011;11982;50.810;4.442;2022-11-14T06:58:26;47.15;;;23.30;;
23608;SDS011;11982;50.810;4.442;2022-11-14T07:00:53;45.55;;;24.20;;
23608;SDS011;11982;50.810;4.442;2022-11-14T07:03:19;49.42;;;22.90;;
23608;SDS011;11982;50.810;4.442;2022-11-14T07:05:46;54.10;;;24.90;;
23608;SDS011;11982;50.810;4.442;2022-11-14T07:08:12;72.53;;;38.47;;
23608;SDS011;11982;50.810;4.442;2022-11-14T07:10:38;83.85;;;40.45;;
23608;SDS011;11982;50.810;4.442;2022-11-14T07:13:03;78.82;;;41.85;;
23608;SDS011;11982;50.810;4.442;2022-11-14T07:15:29;76.68;;;39.55;;
23608;SDS011;11982;50.810;4.442;2022-11-14T07:17:54;67.90;;;38.22;;
23608;SDS011;11982;50.810;4.442;2022-11-14T07:20:20;74.65;;;37.22;;
23608;SDS011;11982;50.810;4.442;2022-11-14T07:22:45;68.07;;;37.03;;
23608;SDS011;11982;50.810;4.442;2022-11-14T07:25:11;73.18;;;39.63;;
23608;SDS011;11982;50.810;4.442;2022-11-14T07:27:37;61.95;;;34.60;;
23608;SDS011;11982;50.810;4.442;2022-11-14T07:30:03;54.60;;;27.50;;
23608;SDS011;11982;50.810;4.442;2022-11-14T07:32:29;61.30;;;34.92;;
23608;SDS011;11982;50.810;4.442;2022-11-14T07:34:55;68.13;;;35.22;;
23608;SDS011;11982;50.810;4.442;2022-11-14T07:37:21;64.28;;;33.75;;
23608;SDS011;11982;50.810;4.442;2022-11-14T07:39:46;58.38;;;28.65;;
23608;SDS011;11982;50.810;4.442;2022-11-14T07:42:12;59.08;;;28.25;;
23608;SDS011;11982;50.810;4.442;2022-11-14T07:44:37;51.72;;;26.40;;
23608;SDS011;11982;50.810;4.442;2022-11-14T07:47:03;54.90;;;26.60;;
23608;SDS011;11982;50.810;4.442;2022-11-14T07:49:29;49.30;;;27.55;;
23608;SDS011;11982;50.810;4.442;2022-11-14T07:51:54;54.60;;;27.67;;
23608;SDS011;11982;50.810;4.442;2022-11-14T07:54:20;44.25;;;24.73;;
23608;SDS011;11982;50.810;4.442;2022-11-14T07:56:45;58.00;;;27.67;;
23608;SDS011;11982;50.810;4.442;2022-11-14T07:59:11;50.92;;;27.55;;
23608;SDS011;11982;50.810;4.442;2022-11-14T08:01:37;59.72;;;29.45;;
23608;SDS011;11982;50.810;4.442;2022-11-14T08:04:02;54.15;;;30.52;;
23608;SDS011;11982;50.810;4.442;2022-11-14T08:06:28;58.60;;;29.67;;
23608;SDS011;11982;50.810;4.442;2022-11-14T08:08:54;57.22;;;27.73;;
23608;SDS011;11982;50.810;4.442;2022-11-14T08:11:19;55.33;;;29.23;;
23608;SDS011;11982;50.810;4.442;2022-11-14T08:14:05;54.22;;;28.35;;
23608;SDS011;11982;50.810;4.442;2022-11-14T08:16:31;56.65;;;29.00;;
23608;SDS011;11982;50.810;4.442;2022-11-14T08:18:56;51.38;;;26.58;;
23608;SDS011;11982;50.810;4.442;2022-11-14T08:21:22;45.05;;;24.48;;
23608;SDS011;11982;50.810;4.442;2022-11-14T08:23:47;42.53;;;22.80;;
23608;SDS011;11982;50.810;4.442;2022-11-14T08:26:13;46.10;;;22.60;;
23608;SDS011;11982;50.810;4.442;2022-11-14T08:28:38;45.90;;;24.67;;
23608;SDS011;11982;50.810;4.442;2022-11-14T08:31:04;57.97;;;29.15;;
23608;SDS011;11982;50.810;4.442;2022-11-14T08:33:30;60.97;;;30.88;;
23608;SDS011;11982;50.810;4.442;2022-11-14T08:35:59;53.15;;;29.75;;
23608;SDS011;11982;50.810;4.442;2022-11-14T08:38:25;52.20;;;29.13;;
23608;SDS011;11982;50.810;4.442;2022-11-14T08:40:51;52.28;;;27.85;;
23608;SDS011;11982;50.810;4.442;2022-11-14T08:43:17;50.55;;;27.45;;
23608;SDS011;11982;50.810;4.442;2022-11-14T08:45:42;61.38;;;28.95;;
23608;SDS011;11982;50.810;4.442;2022-11-14T08:48:08;46.78;;;26.05;;
23608;SDS011;11982;50.810;4.442;2022-11-14T08:50:34;50.67;;;27.80;;
23608;SDS011;11982;50.810;4.442;2022-11-14T08:52:59;50.50;;;25.65;;
23608;SDS011;11982;50.810;4.442;2022-11-14T08:55:25;48.95;;;26.48;;
23608;SDS011;11982;50.810;4.442;2022-11-14T08:57:51;50.55;;;27.17;;
23608;SDS011;11982;50.810;4.442;2022-11-14T09:00:17;52.28;;;26.30;;
23608;SDS011;11982;50.810;4.442;2022-11-14T09:02:43;45.05;;;23.02;;
23608;SDS011;11982;50.810;4.442;2022-11-14T09:05:09;49.13;;;22.30;;
23608;SDS011;11982;50.810;4.442;2022-11-14T09:07:35;40.35;;;21.55;;
23608;SDS011;11982;50.810;4.442;2022-11-14T09:10:00;41.10;;;21.60;;
23608;SDS011;11982;50.810;4.442;2022-11-14T09:12:26;44.88;;;21.48;;
23608;SDS011;11982;50.810;4.442;2022-11-14T09:14:52;39.22;;;20.63;;
23608;SDS011;11982;50.810;4.442;2022-11-14T09:17:17;42.20;;;20.65;;
23608;SDS011;11982;50.810;4.442;2022-11-14T09:19:43;43.90;;;20.75;;
23608;SDS011;11982;50.810;4.442;2022-11-14T09:22:08;47.47;;;23.83;;
23608;SDS011;11982;50.810;4.442;2022-11-14T09:24:34;47.17;;;23.08;;
23608;SDS011;11982;50.810;4.442;2022-11-14T09:27:00;46.72;;;23.80;;
23608;SDS011;11982;50.810;4.442;2022-11-14T09:29:25;38.95;;;22.95;;
23608;SDS011;11982;50.810;4.442;2022-11-14T09:31:51;38.90;;;22.30;;
23608;SDS011;11982;50.810;4.442;2022-11-14T09:34:17;38.90;;;21.42;;
23608;SDS011;11982;50.810;4.442;2022-11-14T09:36:42;42.60;;;22.48;;
23608;SDS011;11982;50.810;4.442;2022-11-14T09:39:08;50.45;;;23.83;;
23608;SDS011;11982;50.810;4.442;2022-11-14T09:41:44;41.90;;;23.35;;
23608;SDS011;11982;50.810;4.442;2022-11-14T09:44:37;43.33;;;23.85;;
23608;SDS011;11982;50.810;4.442;2022-11-14T09:47:17;50.92;;;24.15;;
23608;SDS011;11982;50.810;4.442;2022-11-14T09:49:52;51.92;;;25.65;;
23608;SDS011;11982;50.810;4.442;2022-11-14T09:52:29;50.38;;;26.23;;
23608;SDS011;11982;50.810;4.442;2022-11-14T09:57:37;48.85;;;25.73;;
23608;SDS011;11982;50.810;4.442;2022-11-14T10:00:11;47.70;;;26.85;;
23608;SDS011;11982;50.810;4.442;2022-11-14T10:02:40;56.92;;;28.40;;
23608;SDS011;11982;50.810;4.442;2022-11-14T10:05:38;54.83;;;26.88;;
23608;SDS011;11982;50.810;4.442;2022-11-14T10:11:49;51.03;;;28.48;;
23608;SDS011;11982;50.810;4.442;2022-11-14T10:20:19;52.00;;;27.73;;
23608;SDS011;11982;50.810;4.442;2022-11-14T10:28:55;49.78;;;28.52;;
23608;SDS011;11982;50.810;4.442;2022-11-14T10:34:01;54.45;;;29.80;;
23608;SDS011;11982;50.810;4.442;2022-11-14T10:39:41;56.53;;;29.80;;
23608;SDS011;11982;50.810;4.442;2022-11-14T10:42:13;47.45;;;27.52;;
23608;SDS011;11982;50.810;4.442;2022-11-14T10:45:02;46.70;;;26.60;;
23608;SDS011;11982;50.810;4.442;2022-11-14T10:47:39;48.58;;;27.65;;
23608;SDS011;11982;50.810;4.442;2022-11-14T10:50:14;46.78;;;28.30;;
23608;SDS011;11982;50.810;4.442;2022-11-14T10:52:44;45.70;;;26.77;;
23608;SDS011;11982;50.810;4.442;2022-11-14T10:55:16;53.65;;;27.77;;
23608;SDS011;11982;50.810;4.442;2022-11-14T10:57:45;48.67;;;25.38;;
23608;SDS011;11982;50.810;4.442;2022-11-14T11:00:12;48.28;;;27.30;;
23608;SDS011;11982;50.810;4.442;2022-11-14T11:02:56;51.60;;;26.67;;
23608;SDS011;11982;50.810;4.442;2022-11-14T11:05:23;47.25;;;26.58;;
23608;SDS011;11982;50.810;4.442;2022-11-14T11:07:52;49.08;;;27.13;;
23608;SDS011;11982;50.810;4.442;2022-11-14T11:10:40;50.72;;;26.92;;
23608;SDS011;11982;50.810;4.442;2022-11-14T11:13:31;47.83;;;27.23;;
23608;SDS011;11982;50.810;4.442;2022-11-14T11:15:59;53.10;;;29.10;;
23608;SDS011;11982;50.810;4.442;2022-11-14T11:18:28;50.22;;;27.50;;
23608;SDS011;11982;50.810;4.442;2022-11-14T11:21:04;47.85;;;26.30;;
23608;SDS011;11982;50.810;4.442;2022-11-14T11:23:32;47.55;;;27.83;;
23608;SDS011;11982;50.810;4.442;2022-11-14T11:31:49;54.35;;;29.75;;
23608;SDS011;11982;50.810;4.442;2022-11-14T11:34:29;46.13;;;28.23;;
23608;SDS011;11982;50.810;4.442;2022-11-14T11:39:36;51.67;;;26.90;;
23608;SDS011;11982;50.810;4.442;2022-11-14T11:42:07;52.17;;;29.80;;
23608;SDS011;11982;50.810;4.442;2022-11-14T11:44:43;60.90;;;29.13;;
23608;SDS011;11982;50.810;4.442;2022-11-14T11:47:13;49.53;;;30.13;;
23608;SDS011;11982;50.810;4.442;2022-11-14T11:49:48;49.13;;;28.60;;
23608;SDS011;11982;50.810;4.442;2022-11-14T11:57:37;52.83;;;29.80;;
23608;SDS011;11982;50.810;4.442;2022-11-14T12:00:15;50.10;;;28.83;;
23608;SDS011;11982;50.810;4.442;2022-11-14T12:02:46;54.72;;;29.63;;
23608;SDS011;11982;50.810;4.442;2022-11-14T12:08:16;48.05;;;27.65;;
23608;SDS011;11982;50.810;4.442;2022-11-14T12:10:54;45.92;;;26.23;;
23608;SDS011;11982;50.810;4.442;2022-11-14T12:19:10;48.70;;;26.85;;
23608;SDS011;11982;50.810;4.442;2022-11-14T12:27:18;46.47;;;26.60;;
23608;SDS011;11982;50.810;4.442;2022-11-14T12:30:11;50.30;;;27.05;;
23608;SDS011;11982;50.810;4.442;2022-11-14T12:32:51;49.20;;;27.08;;
23608;SDS011;11982;50.810;4.442;2022-11-14T12:35:27;47.45;;;26.10;;
23608;SDS011;11982;50.810;4.442;2022-11-14T12:37:56;47.40;;;25.65;;
23608;SDS011;11982;50.810;4.442;2022-11-14T12:40:28;49.25;;;28.05;;
23608;SDS011;11982;50.810;4.442;2022-11-14T12:42:54;49.17;;;27.25;;
23608;SDS011;11982;50.810;4.442;2022-11-14T12:48:22;45.35;;;26.23;;
23608;SDS011;11982;50.810;4.442;2022-11-14T12:50:55;44.58;;;25.33;;
23608;SDS011;11982;50.810;4.442;2022-11-14T12:58:56;49.97;;;27.15;;
23608;SDS011;11982;50.810;4.442;2022-11-14T13:06:44;56.30;;;30.35;;
23608;SDS011;11982;50.810;4.442;2022-11-14T13:09:34;53.22;;;29.77;;
23608;SDS011;11982;50.810;4.442;2022-11-14T13:15:21;50.95;;;29.90;;
23608;SDS011;11982;50.810;4.442;2022-11-14T13:18:11;50.90;;;28.30;;
23608;SDS011;11982;50.810;4.442;2022-11-14T13:21:02;50.90;;;29.23;;
23608;SDS011;11982;50.810;4.442;2022-11-14T13:28:43;53.92;;;31.25;;
23608;SDS011;11982;50.810;4.442;2022-11-14T13:33:48;53.80;;;30.63;;
23608;SDS011;11982;50.810;4.442;2022-11-14T13:42:43;51.45;;;29.83;;
23608;SDS011;11982;50.810;4.442;2022-11-14T13:51:00;55.30;;;30.13;;
23608;SDS011;11982;50.810;4.442;2022-11-14T13:53:30;53.35;;;30.88;;
23608;SDS011;11982;50.810;4.442;2022-11-14T14:01:21;55.53;;;30.77;;
23608;SDS011;11982;50.810;4.442;2022-11-14T14:06:33;54.72;;;30.10;;
23608;SDS011;11982;50.810;4.442;2022-11-14T14:16:43;61.80;;;35.17;;
23608;SDS011;11982;50.810;4.442;2022-11-14T14:19:38;57.53;;;32.58;;
23608;SDS011;11982;50.810;4.442;2022-11-14T14:24:41;60.80;;;33.65;;
23608;SDS011;11982;50.810;4.442;2022-11-14T14:27:23;60.08;;;33.28;;
23608;SDS011;11982;50.810;4.442;2022-11-14T14:30:10;54.50;;;33.67;;
23608;SDS011;11982;50.810;4.442;2022-11-14T14:32:43;61.67;;;34.95;;
23608;SDS011;11982;50.810;4.442;2022-11-14T14:35:26;59.80;;;33.17;;
23608;SDS011;11982;50.810;4.442;2022-11-14T14:37:54;59.08;;;36.33;;
23608;SDS011;11982;50.810;4.442;2022-11-14T14:40:27;55.95;;;33.80;;
23608;SDS011;11982;50.810;4.442;2022-11-14T14:42:57;57.45;;;33.95;;
23608;SDS011;11982;50.810;4.442;2022-11-14T14:45:25;63.22;;;36.35;;
23608;SDS011;11982;50.810;4.442;2022-11-14T14:47:59;61.58;;;34.45;;
23608;SDS011;11982;50.810;4.442;2022-11-14T14:50:40;55.42;;;32.75;;
23608;SDS011;11982;50.810;4.442;2022-11-14T14:53:16;56.60;;;33.22;;
23608;SDS011;11982;50.810;4.442;2022-11-14T14:56:05;65.25;;;35.80;;
23608;SDS011;11982;50.810;4.442;2022-11-14T14:58:41;68.70;;;38.70;;
23608;SDS011;11982;50.810;4.442;2022-11-14T15:01:11;54.28;;;33.40;;
23608;SDS011;11982;50.810;4.442;2022-11-14T15:03:41;58.22;;;33.30;;
23608;SDS011;11982;50.810;4.442;2022-11-14T15:08:59;53.93;;;32.50;;
23608;SDS011;11982;50.810;4.442;2022-11-14T15:11:31;54.75;;;31.65;;
23608;SDS011;11982;50.810;4.442;2022-11-14T15:13:58;56.75;;;32.35;;
23608;SDS011;11982;50.810;4.442;2022-11-14T15:16:25;54.60;;;31.95;;
23608;SDS011;11982;50.810;4.442;2022-11-14T15:18:53;56.88;;;32.53;;
23608;SDS011;11982;50.810;4.442;2022-11-14T15:21:25;61.03;;;35.78;;
23608;SDS011;11982;50.810;4.442;2022-11-14T15:23:59;49.67;;;30.42;;
23608;SDS011;11982;50.810;4.442;2022-11-14T15:29:10;56.95;;;32.58;;
23608;SDS011;11982;50.810;4.442;2022-11-14T15:34:27;65.03;;;37.15;;
23608;SDS011;11982;50.810;4.442;2022-11-14T15:37:07;64.28;;;37.35;;
23608;SDS011;11982;50.810;4.442;2022-11-14T15:39:44;54.40;;;30.15;;
23608;SDS011;11982;50.810;4.442;2022-11-14T15:42:15;47.70;;;28.73;;
23608;SDS011;11982;50.810;4.442;2022-11-14T15:44:48;42.85;;;27.25;;
23608;SDS011;11982;50.810;4.442;2022-11-14T15:47:27;43.05;;;27.00;;
23608;SDS011;11982;50.810;4.442;2022-11-14T15:52:46;43.75;;;27.10;;
23608;SDS011;11982;50.810;4.442;2022-11-14T15:55:15;38.28;;;25.35;;
23608;SDS011;11982;50.810;4.442;2022-11-14T15:57:42;44.22;;;25.85;;
23608;SDS011;11982;50.810;4.442;2022-11-14T16:00:14;38.17;;;24.13;;
23608;SDS011;11982;50.810;4.442;2022-11-14T16:02:54;43.88;;;25.63;;
23608;SDS011;11982;50.810;4.442;2022-11-14T16:05:25;44.63;;;25.52;;
23608;SDS011;11982;50.810;4.442;2022-11-14T16:07:53;41.83;;;26.50;;
23608;SDS011;11982;50.810;4.442;2022-11-14T16:10:20;38.22;;;24.95;;
23608;SDS011;11982;50.810;4.442;2022-11-14T16:12:47;41.58;;;25.80;;
23608;SDS011;11982;50.810;4.442;2022-11-14T16:15:13;37.83;;;24.50;;
23608;SDS011;11982;50.810;4.442;2022-11-14T16:17:41;38.92;;;25.48;;
23608;SDS011;11982;50.810;4.442;2022-11-14T16:20:18;36.42;;;22.40;;
23608;SDS011;11982;50.810;4.442;2022-11-14T16:22:46;39.63;;;23.73;;
23608;SDS011;11982;50.810;4.442;2022-11-14T16:25:16;35.95;;;23.05;;
23608;SDS011;11982;50.810;4.442;2022-11-14T16:27:44;35.28;;;23.00;;
23608;SDS011;11982;50.810;4.442;2022-11-14T16:30:11;36.35;;;22.20;;
23608;SDS011;11982;50.810;4.442;2022-11-14T16:32:38;37.53;;;23.63;;
23608;SDS011;11982;50.810;4.442;2022-11-14T16:35:05;34.47;;;22.02;;